Terminal Aerodrome Forecast
Issued by NWS Pendleton, OR

Home | Current Version | Previous Version | Text Only | Print | Product List | Glossary On
Versions: 1 2 3 4 5 6 7 8 9 10 11 12 13 14 15 16 17
410
FTUS46 KPDT 192320
TAFPDT
TAF
KPDT 192320Z 2000/2024 33009KT P6SM SCT200
     FM200300 16005KT P6SM SCT200
     FM201800 24006KT P6SM SCT200=

USA.gov is the U.S. government's official web portal to all federal, state and local government web resources and services.